Time;durP1;ratioP1;P1;durP2;ratioP2;P2;SDS_P1;SDS_P2;PMS_P1;PMS_P2;Temp;Humidity;BMP_temperature;BMP_pressure;BME280_temperature;BME280_humidity;BME280_pressure;Samples;Min_cycle;Max_cycle;Signal;HPM_P1;HPM_P2
2022/03/21 00:00:16;;;;;;;7.57;4.53;;;;;;;-0.24;45.51;99725.19;6268369;28;20682;-77
2022/03/21 00:03:20;;;;;;;5.87;4.33;;;;;;;-0.30;45.30;99721.78;6252370;28;20306;-77
2022/03/21 00:06:22;;;;;;;9.07;4.20;;;;;;;-0.35;45.41;99715.72;6251263;28;20233;-77
2022/03/21 00:09:24;;;;;;;5.80;3.83;;;;;;;-0.39;45.07;99712.28;6252723;28;20789;-77
2022/03/21 00:12:28;;;;;;;5.50;3.97;;;;;;;-0.40;45.64;99711.41;6251281;28;20251;-76
2022/03/21 00:15:32;;;;;;;5.40;4.00;;;;;;;-0.48;45.75;99720.94;6245847;28;20215;-76
2022/03/21 00:18:34;;;;;;;8.23;4.80;;;;;;;-0.56;46.23;99719.25;6246390;28;20234;-76
2022/03/21 00:21:36;;;;;;;6.60;4.33;;;;;;;-0.66;46.89;99723.59;6250747;28;20226;-76
2022/03/21 00:24:38;;;;;;;5.77;3.97;;;;;;;-0.68;46.62;99719.28;6251361;28;20610;-77
2022/03/21 00:27:40;;;;;;;6.63;4.40;;;;;;;-0.77;46.93;99722.75;6252037;28;20233;-77
2022/03/21 00:30:46;;;;;;;8.93;4.73;;;;;;;-0.90;47.90;99718.50;6250520;28;20601;-77
2022/03/21 00:33:49;;;;;;;7.70;4.10;;;;;;;-1.00;48.04;99722.81;6253806;28;20686;-77
2022/03/21 00:36:51;;;;;;;5.33;3.77;;;;;;;-1.05;48.23;99714.19;6252726;28;20231;-77
2022/03/21 00:39:53;;;;;;;5.90;3.73;;;;;;;-1.12;48.49;99715.94;6252828;28;20246;-77
2022/03/21 00:42:56;;;;;;;8.17;4.83;;;;;;;-1.16;48.63;99715.91;6252359;28;20245;-77
2022/03/21 00:45:58;;;;;;;5.63;4.13;;;;;;;-1.17;48.87;99709.88;6241043;28;20232;-76
2022/03/21 00:49:00;;;;;;;6.00;4.07;;;;;;;-1.15;48.68;99708.16;6243191;28;20580;-76
2022/03/21 00:52:02;;;;;;;6.47;3.77;;;;;;;-0.82;47.19;99701.19;6250475;28;20601;-76
2022/03/21 00:55:05;;;;;;;6.03;3.63;;;;;;;-0.85;47.02;99696.00;6250702;28;20231;-76
2022/03/21 00:58:07;;;;;;;5.37;4.13;;;;;;;-0.76;47.11;99690.81;6251419;28;20234;-76
2022/03/21 01:01:09;;;;;;;6.40;4.13;;;;;;;-0.60;44.88;99691.63;6250439;28;20756;-76
2022/03/21 01:04:11;;;;;;;7.23;4.37;;;;;;;-0.64;47.46;99688.19;6251889;28;20288;-76
2022/03/21 01:07:14;;;;;;;9.97;4.63;;;;;;;-0.70;47.44;99700.31;6249822;28;20622;-76
2022/03/21 01:10:19;;;;;;;5.00;3.57;;;;;;;-0.78;48.15;99692.53;6267614;28;20262;-76
2022/03/21 01:13:21;;;;;;;8.87;5.57;;;;;;;-0.88;48.25;99686.50;6252027;28;20273;-76
2022/03/21 01:16:23;;;;;;;5.30;4.07;;;;;;;-0.78;47.73;99677.84;6239206;28;20232;-78
2022/03/21 01:19:27;;;;;;;4.47;3.60;;;;;;;-0.73;47.75;99676.97;6220500;28;20231;-76
2022/03/21 01:22:29;;;;;;;6.23;3.83;;;;;;;-0.62;47.15;99668.31;6266846;28;20239;-77
2022/03/21 01:25:32;;;;;;;6.67;4.30;;;;;;;-0.58;47.16;99663.94;6249896;28;20227;-76
2022/03/21 01:28:33;;;;;;;8.07;3.97;;;;;;;-0.65;47.64;99652.75;6251629;28;20655;-77
2022/03/21 01:31:35;;;;;;;6.07;4.20;;;;;;;-0.55;46.01;99658.75;6234749;28;20239;-76
2022/03/21 01:34:37;;;;;;;6.60;3.80;;;;;;;-0.47;46.63;99659.56;6251543;28;20227;-76
2022/03/21 01:37:39;;;;;;;6.17;3.43;;;;;;;-0.47;46.38;99657.84;6251141;28;20238;-76
2022/03/21 01:40:41;;;;;;;5.87;4.20;;;;;;;-0.46;46.32;99656.13;6249935;28;20249;-77
2022/03/21 01:43:57;;;;;;;6.40;3.97;;;;;;;-0.47;46.26;99656.97;6249339;28;20223;-77
2022/03/21 01:46:59;;;;;;;5.50;4.00;;;;;;;-0.54;46.59;99658.75;6247396;28;20610;-77
2022/03/21 01:50:04;;;;;;;7.37;4.03;;;;;;;-0.48;46.07;99656.13;6253748;28;20233;-76
2022/03/21 01:56:27;;;;;;;5.87;3.73;;;;;;;-0.50;46.06;99641.47;6255047;28;20219;-76
2022/03/21 01:59:30;;;;;;;4.17;3.37;;;;;;;-0.60;46.40;99644.97;6254107;28;20239;-75
2022/03/21 02:02:33;;;;;;;5.07;3.70;;;;;;;-0.68;46.96;99638.91;6255653;28;20275;-76
2022/03/21 02:05:37;;;;;;;6.40;3.87;;;;;;;-0.73;46.58;99633.78;6256524;28;20710;-76
2022/03/21 02:08:39;;;;;;;5.73;3.57;;;;;;;-0.81;46.58;99639.00;6255568;28;20235;-78
2022/03/21 02:11:42;;;;;;;5.90;4.40;;;;;;;-0.73;45.96;99638.94;6254935;28;20667;-77
2022/03/21 02:14:44;;;;;;;5.07;4.00;;;;;;;-0.72;46.33;99640.69;6270454;28;20312;-78
2022/03/21 02:17:47;;;;;;;5.23;3.60;;;;;;;-0.73;46.36;99640.69;6237012;28;20475;-77
2022/03/21 02:20:50;;;;;;;7.17;4.10;;;;;;;-0.66;46.04;99642.38;6253610;28;20726;-77
2022/03/21 02:24:02;;;;;;;7.07;3.70;;;;;;;-0.76;46.58;99641.53;6252857;28;20235;-78
2022/03/21 02:27:08;;;;;;;4.50;3.57;;;;;;;-0.81;46.78;99640.72;6255350;28;20228;-76
2022/03/21 02:30:11;;;;;;;11.23;4.20;;;;;;;-0.97;47.49;99637.28;6229820;28;20219;-78
2022/03/21 02:33:15;;;;;;;5.37;3.87;;;;;;;-1.10;48.14;99632.16;6235480;28;20234;-77
2022/03/21 02:36:20;;;;;;;4.80;3.73;;;;;;;-1.23;48.32;99639.09;6253074;28;20226;-77
2022/03/21 02:39:23;;;;;;;6.73;4.20;;;;;;;-1.29;48.82;99639.09;6253027;28;20234;-77
2022/03/21 02:42:25;;;;;;;5.30;4.13;;;;;;;-1.38;48.68;99637.38;6253549;28;20257;-77
2022/03/21 02:45:27;;;;;;;6.97;3.77;;;;;;;-1.42;49.00;99639.97;6249264;28;20235;-77
2022/03/21 02:48:29;;;;;;;7.47;4.57;;;;;;;-1.45;49.78;99639.97;6235233;28;20694;-77
2022/03/21 02:51:37;;;;;;;15.20;4.83;;;;;;;-1.55;49.85;99636.53;6254219;28;20227;-77
2022/03/21 02:54:39;;;;;;;4.83;3.20;;;;;;;-1.65;50.72;99637.41;6253946;28;20736;-76
2022/03/21 02:57:41;;;;;;;5.57;3.73;;;;;;;-1.68;50.54;99643.44;6253911;28;20227;-76
2022/03/21 03:00:43;;;;;;;7.07;3.93;;;;;;;-1.79;51.48;99645.16;6252865;28;20731;-77
2022/03/21 03:03:45;;;;;;;8.47;4.23;;;;;;;-1.87;51.55;99647.72;6254853;28;20223;-77
2022/03/21 03:06:47;;;;;;;7.77;4.13;;;;;;;-1.97;52.93;99639.97;6253477;28;20230;-77
2022/03/21 03:09:49;;;;;;;5.77;3.43;;;;;;;-2.13;53.44;99653.75;6254785;28;20227;-77
2022/03/21 03:12:51;;;;;;;5.83;4.20;;;;;;;-2.21;54.37;99640.81;6251868;28;20285;-76
2022/03/21 03:15:53;;;;;;;5.73;3.77;;;;;;;-2.29;54.34;99650.25;6247092;28;20215;-78
2022/03/21 03:18:55;;;;;;;8.50;4.77;;;;;;;-2.30;54.23;99641.66;6252353;28;20572;-76
2022/03/21 03:21:57;;;;;;;6.20;3.83;;;;;;;-2.26;54.02;99642.50;6251943;28;20219;-77
2022/03/21 03:25:02;;;;;;;7.43;4.00;;;;;;;-2.24;53.34;99641.66;6252042;28;20249;-78
2022/03/21 03:28:04;;;;;;;5.33;3.83;;;;;;;-2.27;53.45;99639.03;6251204;28;20228;-77
2022/03/21 03:31:06;;;;;;;6.47;3.87;;;;;;;-2.33;54.20;99636.47;6252807;28;20710;-76
2022/03/21 03:34:09;;;;;;;5.60;3.70;;;;;;;-2.37;54.36;99645.06;6253441;28;20242;-77
2022/03/21 03:37:16;;;;;;;6.23;4.30;;;;;;;-2.43;55.38;99642.47;6253370;28;20226;-77
2022/03/21 03:40:36;;;;;;;7.77;3.97;;;;;;;-2.42;54.52;99631.28;6200428;28;20835;-77
2022/03/21 03:43:39;;;;;;;5.20;3.50;;;;;;;-2.51;54.58;99635.53;6183934;28;20715;-77
2022/03/21 03:46:41;;;;;;;6.73;3.87;;;;;;;-2.62;55.30;99636.38;6201448;28;20260;-77
2022/03/21 03:49:43;;;;;;;6.87;3.77;;;;;;;-2.67;55.98;99640.66;6200436;28;20778;-76
2022/03/21 03:52:46;;;;;;;6.43;4.33;;;;;;;-2.57;54.93;99635.50;6199358;28;20306;-78
2022/03/21 03:55:48;;;;;;;6.90;3.57;;;;;;;-2.53;54.75;99630.38;6200268;28;20228;-77
2022/03/21 03:58:50;;;;;;;4.77;3.23;;;;;;;-2.58;55.19;99636.34;6183598;28;20615;-77
2022/03/21 04:01:52;;;;;;;4.67;3.17;;;;;;;-2.68;55.92;99627.72;6184492;28;20659;-78
2022/03/21 04:04:54;;;;;;;6.93;3.67;;;;;;;-2.79;56.68;99632.84;6200153;28;20292;-76
2022/03/21 04:07:56;;;;;;;6.50;3.97;;;;;;;-2.89;57.47;99633.66;6183334;28;20610;-77
2022/03/21 04:10:58;;;;;;;6.50;4.00;;;;;;;-2.97;56.96;99631.03;6218811;28;20231;-77
2022/03/21 04:14:00;;;;;;;6.37;4.00;;;;;;;-3.03;57.51;99631.03;6250997;28;20234;-77
2022/03/21 04:17:03;;;;;;;5.13;3.83;;;;;;;-3.09;57.51;99636.13;6251391;28;20231;-76
2022/03/21 04:20:07;;;;;;;5.80;3.60;;;;;;;-2.75;55.43;99629.41;6251983;28;20568;-77
2022/03/21 04:23:11;;;;;;;5.03;4.00;;;;;;;-2.73;55.61;99634.59;6252372;28;20232;-77
2022/03/21 04:26:13;;;;;;;6.80;4.20;;;;;;;-2.81;55.93;99642.31;6250959;28;20237;-77
2022/03/21 04:29:15;;;;;;;6.27;4.17;;;;;;;-2.89;55.70;99645.69;6252853;28;20223;-77
2022/03/21 04:32:17;;;;;;;6.17;3.70;;;;;;;-2.97;56.87;99641.38;6251513;28;20234;-77
2022/03/21 04:35:19;;;;;;;6.27;3.80;;;;;;;-3.03;56.63;99641.34;6251669;28;20223;-77
2022/03/21 04:38:22;;;;;;;5.10;3.93;;;;;;;-3.10;57.17;99637.03;6266751;28;20308;-77
2022/03/21 04:41:24;;;;;;;8.43;4.13;;;;;;;-3.21;57.04;99640.38;6252512;28;20236;-77
2022/03/21 04:44:26;;;;;;;4.73;3.47;;;;;;;-3.34;57.83;99642.00;6251281;28;20235;-77
2022/03/21 04:47:28;;;;;;;8.00;4.43;;;;;;;-3.42;58.13;99636.81;6248158;28;20219;-77
2022/03/21 04:50:31;;;;;;;7.03;3.83;;;;;;;-3.50;59.15;99648.81;6250523;28;20720;-77
2022/03/21 04:53:33;;;;;;;6.33;3.93;;;;;;;-3.57;59.43;99649.59;6251750;28;20242;-77
2022/03/21 04:56:35;;;;;;;7.83;4.63;;;;;;;-3.65;59.66;99643.50;6250634;28;20311;-76
2022/03/21 04:59:38;;;;;;;6.20;4.37;;;;;;;-3.66;59.38;99640.91;6252492;28;20231;-77
2022/03/21 05:02:41;;;;;;;6.70;4.70;;;;;;;-3.72;60.45;99644.31;6250880;28;20230;-76
2022/03/21 05:05:44;;;;;;;7.07;4.40;;;;;;;-3.75;60.36;99641.72;6266771;28;20227;-76
2022/03/21 05:08:46;;;;;;;6.73;3.80;;;;;;;-3.78;59.99;99650.28;6227138;28;20219;-77
2022/03/21 05:11:48;;;;;;;6.90;4.00;;;;;;;-3.78;59.77;99649.41;6246625;28;20230;-78
2022/03/21 05:14:49;;;;;;;6.67;3.87;;;;;;;-3.78;60.12;99657.16;6250091;28;20238;-77
2022/03/21 05:17:52;;;;;;;5.27;3.37;;;;;;;-3.77;60.52;99653.72;6250105;28;20318;-76
2022/03/21 05:20:54;;;;;;;7.03;4.00;;;;;;;-3.81;60.54;99652.84;6256037;28;20706;-76
2022/03/21 05:30:57;;;;;;;5.87;3.90;;;;;;;-3.80;60.42;99652.00;6255573;28;20231;-75
2022/03/21 05:37:19;;;;;;;6.17;4.00;;;;;;;-3.73;60.44;99658.94;6256192;28;20227;-75
2022/03/21 05:40:41;;;;;;;7.13;4.30;;;;;;;-3.72;60.56;99657.22;6255714;28;20281;-75
2022/03/21 05:43:43;;;;;;;6.67;4.00;;;;;;;-3.69;61.55;99661.56;6256077;28;20702;-75
2022/03/21 05:46:45;;;;;;;5.77;4.50;;;;;;;-3.72;61.11;99657.22;6229192;28;20231;-76
2022/03/21 05:49:47;;;;;;;7.63;4.43;;;;;;;-3.70;61.22;99664.97;6251725;28;20630;-76
2022/03/21 05:52:49;;;;;;;6.27;4.83;;;;;;;-3.68;61.24;99663.25;6237529;28;20242;-75
2022/03/21 05:55:51;;;;;;;4.83;3.70;;;;;;;-3.59;61.41;99678.84;6254856;28;20234;-76
2022/03/21 05:58:54;;;;;;;6.97;4.13;;;;;;;-3.50;60.74;99676.31;6255106;28;20321;-76
2022/03/21 06:01:57;;;;;;;10.30;4.37;;;;;;;-3.50;61.16;99674.59;6254663;28;20227;-76
2022/03/21 06:05:01;;;;;;;6.43;4.33;;;;;;;-3.38;61.06;99679.84;6253727;28;20234;-75
2022/03/21 06:08:03;;;;;;;7.67;4.50;;;;;;;-3.31;60.61;99691.09;6256330;28;20220;-75
2022/03/21 06:11:08;;;;;;;6.03;3.80;;;;;;;-3.22;60.86;99687.72;6255638;28;20267;-76
2022/03/21 06:14:10;;;;;;;5.47;4.03;;;;;;;-3.16;60.35;99696.34;6255713;28;20235;-76
2022/03/21 06:17:12;;;;;;;6.53;3.90;;;;;;;-3.16;60.07;99696.34;6255478;28;20227;-76
2022/03/21 06:20:16;;;;;;;7.30;4.17;;;;;;;-3.11;60.54;99701.56;6252590;28;20591;-76
2022/03/21 06:23:18;;;;;;;8.70;4.17;;;;;;;-3.08;60.29;99699.84;6254607;28;20613;-75
2022/03/21 06:26:20;;;;;;;7.43;4.87;;;;;;;-3.03;60.09;99693.00;6254640;28;20238;-76
2022/03/21 06:29:22;;;;;;;7.17;4.13;;;;;;;-2.85;58.98;99696.53;6254738;28;20657;-76
2022/03/21 06:32:24;;;;;;;7.30;4.90;;;;;;;-2.74;58.92;99690.56;6253918;28;20215;-76
2022/03/21 06:35:26;;;;;;;6.67;4.00;;;;;;;-2.67;58.84;99696.63;6253231;28;20226;-75
2022/03/21 06:38:30;;;;;;;7.90;4.40;;;;;;;-2.56;58.67;99694.09;6254674;28;20238;-76
2022/03/21 06:41:32;;;;;;;12.03;4.33;;;;;;;-2.44;57.98;99697.59;6254114;28;20716;-75
2022/03/21 06:44:33;;;;;;;6.97;4.13;;;;;;;-2.38;58.55;99697.63;6253695;28;20238;-76
2022/03/21 06:47:35;;;;;;;8.57;4.67;;;;;;;-2.19;55.47;99700.25;6269255;28;20632;-75
2022/03/21 06:50:37;;;;;;;8.40;4.40;;;;;;;-1.76;55.11;99693.47;6269068;28;20227;-76
2022/03/21 06:53:39;;;;;;;9.73;5.17;;;;;;;-1.64;54.69;99703.84;6253824;28;20269;-76
2022/03/21 06:56:41;;;;;;;9.17;4.33;;;;;;;-1.46;54.49;99705.56;6268473;28;20211;-76
2022/03/21 06:59:46;;;;;;;6.97;4.80;;;;;;;-1.32;54.13;99701.25;6253980;28;20654;-75
2022/03/21 07:02:48;;;;;;;5.27;4.40;;;;;;;-1.19;54.10;99708.13;6252212;28;20226;-76
2022/03/21 07:05:51;;;;;;;5.60;4.43;;;;;;;-1.03;53.85;99703.81;6252540;28;20223;-76
2022/03/21 07:08:53;;;;;;;6.20;3.93;;;;;;;-0.87;53.01;99710.69;6252343;28;20227;-75
2022/03/21 07:11:55;;;;;;;5.93;3.87;;;;;;;-0.75;52.58;99705.47;6253784;28;20223;-76
2022/03/21 07:14:56;;;;;;;7.40;4.50;;;;;;;-0.58;51.86;99708.03;6244937;28;20234;-75
2022/03/21 07:17:59;;;;;;;6.97;4.33;;;;;;;-0.45;51.44;99707.97;6222157;28;20245;-75
2022/03/21 07:21:01;;;;;;;8.37;4.33;;;;;;;-0.22;50.16;99712.22;6251522;28;20227;-75
2022/03/21 07:24:03;;;;;;;6.93;4.37;;;;;;;-0.12;50.25;99722.56;6250082;28;20218;-76
2022/03/21 07:27:06;;;;;;;7.20;4.43;;;;;;;0.07;48.47;99728.50;6228496;28;20314;-75
2022/03/21 07:30:09;;;;;;;11.00;5.60;;;;;;;0.93;44.56;99726.16;6210822;28;20579;-75
2022/03/21 07:33:12;;;;;;;9.47;5.30;;;;;;;1.13;45.05;99725.97;6247729;28;20226;-76
2022/03/21 07:36:14;;;;;;;8.30;5.57;;;;;;;1.39;44.54;99731.78;6252037;28;20239;-77
2022/03/21 07:39:17;;;;;;;9.47;4.97;;;;;;;1.73;43.38;99732.25;6251553;28;20239;-77
2022/03/21 07:42:19;;;;;;;9.47;5.17;;;;;;;2.01;43.15;99719.75;6253162;28;20713;-76
2022/03/21 07:48:42;;;;;;;8.17;5.37;;;;;;;2.49;42.28;99723.44;6235824;28;20552;-77
2022/03/21 07:51:44;;;;;;;8.70;5.03;;;;;;;2.83;42.61;99719.38;6251755;28;20725;-77
2022/03/21 07:54:51;;;;;;;8.63;5.70;;;;;;;3.29;41.16;99714.22;6250779;28;20235;-77
2022/03/21 07:57:53;;;;;;;10.13;6.03;;;;;;;3.84;38.76;99704.47;6253211;28;20246;-77
2022/03/21 08:00:59;;;;;;;9.03;5.30;;;;;;;4.24;38.60;99715.78;6250981;28;20234;-77
2022/03/21 08:04:04;;;;;;;6.90;5.10;;;;;;;4.59;38.81;99720.19;6266156;28;20286;-77
2022/03/21 08:07:06;;;;;;;7.73;5.03;;;;;;;4.82;37.67;99719.63;6268551;28;20606;-77
2022/03/21 08:10:09;;;;;;;10.10;5.43;;;;;;;5.03;36.31;99711.25;6253014;28;20253;-77
2022/03/21 08:13:16;;;;;;;10.80;5.93;;;;;;;5.35;34.74;99715.66;6253310;28;20714;-75
2022/03/21 08:16:20;;;;;;;6.70;4.70;;;;;;;5.58;33.96;99709.81;6244638;28;20245;-75
2022/03/21 08:19:24;;;;;;;8.60;5.03;;;;;;;5.93;33.53;99706.22;6252330;28;20226;-75
2022/03/21 08:22:27;;;;;;;8.30;5.13;;;;;;;6.29;32.96;99699.00;6250342;28;20236;-75
2022/03/21 08:25:30;;;;;;;7.30;5.03;;;;;;;6.45;31.89;99696.78;6251391;28;20230;-75
2022/03/21 08:28:31;;;;;;;9.33;5.47;;;;;;;6.86;32.53;99691.06;6240164;28;20255;-75
2022/03/21 08:31:34;;;;;;;10.60;5.40;;;;;;;7.23;32.10;99695.91;6244600;28;20264;-75
2022/03/21 08:34:35;;;;;;;7.30;5.50;;;;;;;7.67;31.45;99681.22;6250176;28;20238;-75
2022/03/21 08:37:38;;;;;;;8.77;4.83;;;;;;;7.62;30.53;99690.16;6250469;28;20247;-76
2022/03/21 08:40:40;;;;;;;5.63;4.23;;;;;;;7.84;29.79;99692.88;6251285;28;20675;-76
2022/03/21 08:43:42;;;;;;;41.93;8.97;;;;;;;8.06;28.11;99681.50;6251542;28;20233;-76
2022/03/21 08:46:44;;;;;;;8.90;4.90;;;;;;;8.15;27.84;99685.56;6241414;28;20233;-76
2022/03/21 08:49:46;;;;;;;6.50;4.47;;;;;;;8.41;28.42;99692.44;6252048;28;20225;-75
2022/03/21 08:52:48;;;;;;;7.17;4.83;;;;;;;8.72;26.64;99681.56;6249210;28;20230;-76
2022/03/21 08:55:50;;;;;;;6.43;4.97;;;;;;;9.10;27.16;99685.22;6251349;28;20237;-76
2022/03/21 08:58:52;;;;;;;9.27;5.10;;;;;;;9.00;25.93;99684.75;6251941;28;20246;-76
2022/03/21 09:01:54;;;;;;;6.73;4.53;;;;;;;9.11;25.21;99677.28;6250141;28;20226;-75
2022/03/21 09:04:58;;;;;;;6.67;4.93;;;;;;;9.50;25.47;99672.06;6249656;28;20744;-76
2022/03/21 09:08:01;;;;;;;6.73;4.70;;;;;;;9.80;25.22;99677.75;6248799;28;20253;-75
2022/03/21 09:11:04;;;;;;;6.73;4.53;;;;;;;10.03;25.41;99673.19;6251965;28;20298;-75
2022/03/21 09:14:08;;;;;;;8.67;5.60;;;;;;;9.84;25.55;99678.47;6249326;28;20731;-75
2022/03/21 09:17:10;;;;;;;12.87;5.13;;;;;;;9.36;25.40;99681.50;6231794;28;20237;-76
2022/03/21 09:20:14;;;;;;;8.40;5.40;;;;;;;9.36;25.50;99677.09;6232194;28;20255;-76
2022/03/21 09:23:16;;;;;;;6.87;4.67;;;;;;;9.98;24.88;99682.16;6249556;28;20235;-75
2022/03/21 09:26:20;;;;;;;6.07;4.83;;;;;;;10.18;24.61;99676.00;6248539;28;20771;-75
2022/03/21 09:29:23;;;;;;;7.23;5.13;;;;;;;10.15;25.37;99675.28;6255335;28;20230;-75
2022/03/21 09:32:25;;;;;;;5.10;4.27;;;;;;;10.64;24.66;99671.19;6251040;28;20726;-76
2022/03/21 09:35:27;;;;;;;9.03;5.30;;;;;;;11.26;24.71;99660.13;6250213;28;20223;-75
2022/03/21 09:38:30;;;;;;;8.23;4.93;;;;;;;11.94;24.08;99668.88;6250479;28;20242;-75
2022/03/21 09:41:32;;;;;;;7.20;5.10;;;;;;;11.26;22.63;99672.47;6250595;28;20400;-75
2022/03/21 09:44:34;;;;;;;7.97;5.57;;;;;;;10.95;23.21;99670.53;6249278;28;20730;-76
2022/03/21 09:51:03;;;;;;;6.97;4.70;;;;;;;11.72;23.41;99670.94;6250632;28;20231;-75
2022/03/21 09:54:06;;;;;;;8.70;4.67;;;;;;;11.33;23.46;99660.66;6249548;28;20242;-76
2022/03/21 09:57:08;;;;;;;7.33;4.80;;;;;;;11.57;23.68;99661.16;6249888;28;20703;-75
2022/03/21 10:00:11;;;;;;;7.27;4.73;;;;;;;11.61;23.98;99663.56;6251079;28;20220;-76
2022/03/21 10:03:13;;;;;;;9.10;5.00;;;;;;;11.78;23.12;99660.91;6250424;28;20219;-75
2022/03/21 10:06:45;;;;;;;13.13;5.80;;;;;;;11.70;23.01;99649.84;6233596;28;20214;-75
2022/03/21 10:10:06;;;;;;;8.43;4.80;;;;;;;11.86;23.91;99651.72;6152922;28;20745;-75
2022/03/21 10:13:09;;;;;;;9.37;5.67;;;;;;;11.85;23.26;99642.06;6154362;28;20254;-75
2022/03/21 10:16:14;;;;;;;7.07;5.00;;;;;;;12.28;23.40;99651.97;6153598;28;20238;-77
2022/03/21 10:19:16;;;;;;;6.70;4.90;;;;;;;12.09;22.74;99646.84;6155185;28;20707;-77
2022/03/21 10:22:33;;;;;;;8.87;5.40;;;;;;;12.01;23.01;99654.38;6153198;28;20249;-77
2022/03/21 10:25:35;;;;;;;5.73;5.00;;;;;;;12.81;23.04;99653.38;6153486;28;20232;-77
2022/03/21 10:28:40;;;;;;;7.43;5.10;;;;;;;13.23;22.59;99655.34;6153307;28;20240;-77
2022/03/21 10:31:52;;;;;;;8.03;5.23;;;;;;;12.44;21.79;99642.25;6137612;28;20760;-77
2022/03/21 10:35:07;;;;;;;7.10;5.00;;;;;;;12.26;22.29;99651.25;6155876;28;20244;-77
2022/03/21 10:38:09;;;;;;;6.57;5.03;;;;;;;12.10;22.22;99645.91;6153447;28;20245;-77
2022/03/21 10:41:11;;;;;;;9.03;4.93;;;;;;;12.67;22.16;99630.38;6153962;28;20224;-77
2022/03/21 10:44:13;;;;;;;5.63;4.53;;;;;;;13.46;21.67;99628.31;6152790;28;20862;-77
2022/03/21 10:47:16;;;;;;;5.30;4.43;;;;;;;13.68;19.66;99630.47;6206400;28;20319;-77
2022/03/21 10:50:29;;;;;;;5.17;4.57;;;;;;;13.80;20.86;99637.69;6226690;28;20234;-77
2022/03/21 10:53:39;;;;;;;7.43;4.97;;;;;;;14.23;20.17;99625.22;6227151;28;20239;-77
2022/03/21 10:56:41;;;;;;;6.03;4.40;;;;;;;13.48;19.85;99630.84;6227845;28;20714;-77
2022/03/21 10:59:43;;;;;;;5.63;4.80;;;;;;;13.61;20.12;99623.84;6226593;28;20250;-77
2022/03/21 11:03:01;;;;;;;5.07;4.30;;;;;;;14.25;19.94;99615.34;6227209;28;20240;-77
2022/03/21 11:06:03;;;;;;;5.97;4.37;;;;;;;14.29;18.61;99623.97;6226955;28;20238;-77
2022/03/21 11:09:06;;;;;;;7.03;4.17;;;;;;;14.22;18.43;99607.56;6229068;28;20220;-77
2022/03/21 11:12:09;;;;;;;6.40;4.57;;;;;;;13.64;18.87;99608.63;6227002;28;20247;-77
2022/03/21 11:15:13;;;;;;;6.97;4.43;;;;;;;13.45;19.33;99616.00;6223420;28;20216;-77
2022/03/21 11:18:15;;;;;;;5.27;4.53;;;;;;;14.25;20.24;99609.19;6188212;28;20208;-77
2022/03/21 11:21:19;;;;;;;5.70;4.43;;;;;;;14.22;19.08;99610.22;6229230;28;20219;-77
2022/03/21 11:24:21;;;;;;;6.37;4.57;;;;;;;13.99;19.30;99603.72;6226607;28;20327;-77
2022/03/21 11:27:32;;;;;;;6.93;4.50;;;;;;;14.14;18.45;99606.38;6219634;28;20688;-77
2022/03/21 11:30:46;;;;;;;5.40;4.50;;;;;;;14.30;17.87;99605.28;6236057;28;20235;-77
2022/03/21 11:34:11;;;;;;;4.43;4.00;;;;;;;14.54;18.03;99602.00;6227293;28;20323;-77
2022/03/21 11:37:33;;;;;;;6.67;4.33;;;;;;;14.71;17.63;99599.09;6225732;28;20581;-77
2022/03/21 11:40:36;;;;;;;5.73;4.20;;;;;;;15.31;17.49;99591.41;6253000;28;20583;-77
2022/03/21 11:43:39;;;;;;;6.50;4.67;;;;;;;15.11;17.77;99584.81;6251858;28;20617;-77
2022/03/21 11:46:48;;;;;;;8.97;5.07;;;;;;;14.36;18.37;99588.09;6247316;28;20227;-77
2022/03/21 11:49:52;;;;;;;5.80;4.33;;;;;;;14.23;18.26;99589.84;6250267;28;20251;-78
2022/03/21 11:53:09;;;;;;;8.60;4.13;;;;;;;13.92;18.16;99588.28;6250198;28;20318;-77
2022/03/21 11:56:15;;;;;;;7.70;4.63;;;;;;;13.96;18.44;99577.41;6252335;28;20216;-77
2022/03/21 11:59:32;;;;;;;5.10;4.50;;;;;;;14.14;17.58;99583.31;6251584;28;20482;-77
2022/03/21 12:02:37;;;;;;;6.50;4.63;;;;;;;14.60;17.87;99581.19;6251861;28;20235;-77
2022/03/21 12:05:41;;;;;;;5.90;4.53;;;;;;;13.24;17.93;99582.81;6227309;28;20227;-77
2022/03/21 12:08:45;;;;;;;5.73;4.00;;;;;;;13.21;18.54;99581.19;6246912;28;20664;-77
2022/03/21 12:11:48;;;;;;;5.03;4.53;;;;;;;13.63;18.63;99580.38;6251640;28;20318;-77
2022/03/21 12:14:56;;;;;;;7.67;4.20;;;;;;;13.65;18.84;99573.19;6256994;28;20706;-77
2022/03/21 12:17:58;;;;;;;7.00;4.40;;;;;;;13.50;18.68;99567.94;6238873;28;20254;-77
2022/03/21 12:21:11;;;;;;;6.07;4.67;;;;;;;14.07;19.09;99557.28;6249580;28;20238;-77
2022/03/21 12:24:17;;;;;;;6.17;4.80;;;;;;;13.34;18.39;99562.75;6251315;28;20289;-77
2022/03/21 12:27:41;;;;;;;4.80;4.13;;;;;;;13.70;18.13;99556.94;6249627;28;20249;-77
2022/03/21 12:30:48;;;;;;;7.37;4.33;;;;;;;14.23;18.01;99547.34;6251961;28;20219;-77
2022/03/21 12:33:51;;;;;;;6.97;4.70;;;;;;;14.52;17.94;99534.81;6251361;28;20242;-77
2022/03/21 12:36:53;;;;;;;8.47;4.60;;;;;;;14.10;17.82;99549.94;6249717;28;20754;-77
2022/03/21 12:39:57;;;;;;;4.73;4.23;;;;;;;14.48;17.75;99546.59;6249442;28;20246;-77
2022/03/21 12:43:01;;;;;;;5.47;4.30;;;;;;;14.62;17.24;99542.09;6250023;28;20702;-77
2022/03/21 12:46:06;;;;;;;6.07;4.53;;;;;;;14.29;17.30;99531.84;6240655;28;20235;-77
2022/03/21 12:49:14;;;;;;;4.77;4.27;;;;;;;14.17;18.29;99537.13;6223967;28;20227;-77
2022/03/21 12:52:33;;;;;;;5.13;4.53;;;;;;;14.73;17.43;99539.56;6252137;28;20237;-77
2022/03/21 12:55:36;;;;;;;8.20;4.43;;;;;;;14.15;17.44;99534.56;6251136;28;20227;-77
2022/03/21 12:58:42;;;;;;;6.73;4.00;;;;;;;14.33;17.43;99541.34;6249051;28;20266;-77
2022/03/21 13:01:45;;;;;;;4.20;3.80;;;;;;;14.53;17.25;99532.06;6265646;28;20231;-77
2022/03/21 13:12:01;;;;;;;5.17;4.27;;;;;;;15.57;16.44;99525.78;6250911;28;20280;-77
2022/03/21 13:15:10;;;;;;;4.87;4.37;;;;;;;15.96;16.00;99534.50;6246944;28;20767;-77
2022/03/21 13:18:12;;;;;;;49.90;9.73;;;;;;;16.47;16.11;99524.47;6226342;28;20706;-77
2022/03/21 13:21:14;;;;;;;6.50;4.47;;;;;;;16.42;17.02;99523.97;6248625;28;20219;-78
2022/03/21 13:24:37;;;;;;;4.67;3.97;;;;;;;17.87;15.64;99508.16;6248150;28;20211;-77
2022/03/21 13:27:39;;;;;;;5.20;4.60;;;;;;;17.88;14.05;99515.22;6249895;28;20235;-77
2022/03/21 13:30:57;;;;;;;5.97;4.47;;;;;;;17.73;15.42;99500.44;6251566;28;20227;-77
2022/03/21 13:34:05;;;;;;;6.63;4.37;;;;;;;17.96;14.00;99502.13;6249857;28;20721;-77
2022/03/21 13:37:32;;;;;;;7.40;4.37;;;;;;;18.09;14.44;99505.47;6251021;28;20714;-76
2022/03/21 13:40:45;;;;;;;6.07;4.27;;;;;;;20.91;13.42;99497.53;6228793;28;20239;-74
2022/03/21 13:44:04;;;;;;;4.87;4.37;;;;;;;22.58;10.99;99509.88;6211100;28;20667;-75
2022/03/21 13:47:09;;;;;;;8.67;5.03;;;;;;;22.07;11.19;99489.88;6217184;28;20229;-75
2022/03/21 13:50:12;;;;;;;10.00;4.57;;;;;;;23.46;11.63;99498.06;6210725;28;20220;-76
2022/03/21 13:53:25;;;;;;;6.07;4.53;;;;;;;23.54;11.10;99488.22;6211179;28;20722;-75
2022/03/21 13:56:28;;;;;;;4.27;3.87;;;;;;;24.50;10.30;99488.69;6211114;28;20239;-76
2022/03/21 13:59:30;;;;;;;5.23;4.00;;;;;;;26.03;9.04;99486.69;6227682;28;20282;-76
2022/03/21 14:02:39;;;;;;;4.83;4.33;;;;;;;24.75;9.53;99481.44;6227623;28;20223;-76
2022/03/21 14:05:42;;;;;;;6.17;4.50;;;;;;;23.50;10.32;99477.91;6210012;28;20235;-76
2022/03/21 14:08:44;;;;;;;6.07;4.40;;;;;;;22.26;10.81;99478.16;6211580;28;20246;-76
2022/03/21 14:11:47;;;;;;;7.43;4.03;;;;;;;17.70;13.64;99490.84;6234436;28;20698;-76
2022/03/21 14:14:51;;;;;;;6.73;4.30;;;;;;;16.98;14.60;99485.00;6254238;28;20253;-77
2022/03/21 14:17:53;;;;;;;6.60;4.27;;;;;;;17.21;14.51;99491.22;6236646;28;20219;-76
2022/03/21 14:20:56;;;;;;;5.67;4.37;;;;;;;18.86;13.31;99471.38;6252821;28;20267;-76
2022/03/21 14:23:58;;;;;;;6.63;4.20;;;;;;;17.10;13.75;99478.72;6254863;28;20640;-76
2022/03/21 14:27:00;;;;;;;5.90;3.83;;;;;;;14.18;16.61;99485.72;6236702;28;20722;-76
2022/03/21 14:30:02;;;;;;;5.97;4.43;;;;;;;12.66;17.98;99482.97;6269622;28;20245;-76
2022/03/21 14:33:04;;;;;;;5.93;4.70;;;;;;;11.79;18.59;99490.66;6254777;28;20215;-75
2022/03/21 14:36:08;;;;;;;6.07;4.67;;;;;;;12.86;18.43;99485.25;6254308;28;20225;-76
2022/03/21 14:39:10;;;;;;;9.00;4.40;;;;;;;13.02;18.01;99484.31;6254121;28;20737;-76
2022/03/21 14:42:12;;;;;;;4.30;3.90;;;;;;;12.75;18.21;99493.00;6252228;28;20679;-76
2022/03/21 14:45:15;;;;;;;5.67;4.33;;;;;;;11.90;18.68;99482.13;6251501;28;20225;-76
2022/03/21 14:48:16;;;;;;;7.77;5.13;;;;;;;11.52;19.40;99471.03;6231576;28;20218;-76
2022/03/21 14:51:19;;;;;;;4.70;3.97;;;;;;;11.25;19.42;99477.81;6253103;28;20212;-76
2022/03/21 14:54:21;;;;;;;4.37;3.80;;;;;;;11.12;19.33;99477.63;6252399;28;20862;-76